Time;durP1;ratioP1;P1;durP2;ratioP2;P2;SDS_P1;SDS_P2;PMS_P1;PMS_P2;Temp;Humidity;BMP_temperature;BMP_pressure;BME280_temperature;BME280_humidity;BME280_pressure;Samples;Min_cycle;Max_cycle;Signal;HPM_P1;HPM_P2
2021/04/10 00:01:11;;;;;;;93.72;45.50;;;;;;;4.33;51.18;100126.73;2314708;75;33163;-63
2021/04/10 00:04:13;;;;;;;83.07;40.55;;;;;;;4.25;51.31;100125.15;2294700;77;29200;-64
2021/04/10 00:07:16;;;;;;;89.17;43.90;;;;;;;4.20;51.65;100124.42;2319015;76;28186;-63
2021/04/10 00:10:20;;;;;;;86.72;44.30;;;;;;;4.15;51.60;100128.08;2337729;76;31156;-64
2021/04/10 00:13:22;;;;;;;103.80;49.25;;;;;;;4.08;51.79;100129.58;2336333;76;31323;-64
2021/04/10 00:16:26;;;;;;;111.90;50.20;;;;;;;4.04;51.98;100131.03;2323757;76;33108;-61
2021/04/10 00:19:28;;;;;;;140.57;61.88;;;;;;;3.98;52.29;100125.41;2276726;78;29254;-60
2021/04/10 00:22:30;;;;;;;143.52;63.90;;;;;;;3.94;52.79;100121.97;2294849;77;27658;-61
2021/04/10 00:25:32;;;;;;;140.73;63.75;;;;;;;3.89;52.58;100125.17;2277267;78;28815;-60
2021/04/10 00:28:34;;;;;;;120.95;56.33;;;;;;;3.85;53.02;100117.34;2294899;76;31130;-62
2021/04/10 00:31:36;;;;;;;119.87;55.65;;;;;;;3.79;53.28;100122.34;2304933;75;33105;-61
2021/04/10 00:34:38;;;;;;;111.40;53.42;;;;;;;3.73;53.29;100119.84;2362922;75;29173;-61
2021/04/10 00:37:41;;;;;;;112.03;52.95;;;;;;;3.67;53.66;100123.52;2274290;78;27645;-61
2021/04/10 00:40:43;;;;;;;109.22;50.83;;;;;;;3.62;53.53;100116.16;2296263;76;28814;-61
2021/04/10 00:43:45;;;;;;;107.97;52.03;;;;;;;3.57;53.87;100116.23;2311028;77;32121;-61
2021/04/10 00:46:47;;;;;;;108.95;50.10;;;;;;;3.54;53.94;100117.66;2312684;75;34477;-61
2021/04/10 00:49:49;;;;;;;112.70;51.80;;;;;;;3.52;53.95;100113.28;2312262;75;29167;-60
2021/04/10 00:52:51;;;;;;;106.40;50.17;;;;;;;3.49;54.18;100120.86;2279124;76;27730;-61
2021/04/10 00:55:56;;;;;;;117.35;53.55;;;;;;;3.43;54.30;100119.23;2311859;75;29230;-60
2021/04/10 00:58:58;;;;;;;103.35;48.20;;;;;;;3.39;54.19;100121.98;2311115;77;31165;-61
2021/04/10 01:02:02;;;;;;;107.40;50.85;;;;;;;3.34;54.37;100120.31;2312356;75;34075;-61
2021/04/10 01:05:06;;;;;;;102.20;49.38;;;;;;;3.30;54.46;100117.77;2343859;75;29161;-61
2021/04/10 01:08:08;;;;;;;106.78;50.98;;;;;;;3.25;54.65;100121.83;2355574;75;27798;-61
2021/04/10 01:11:40;;;;;;;107.32;51.42;;;;;;;3.21;54.70;100112.23;2321466;75;27698;-61
2021/04/10 01:15:12;;;;;;;98.92;48.28;;;;;;;3.17;54.90;100112.73;2312244;77;31266;-61
2021/04/10 01:18:39;;;;;;;109.05;51.80;;;;;;;3.11;54.91;100119.50;2262301;78;33634;-61
2021/04/10 01:21:55;;;;;;;101.22;47.35;;;;;;;3.04;54.87;100120.09;2283757;77;29356;-60
2021/04/10 01:25:30;;;;;;;101.17;47.97;;;;;;;3.04;55.32;100117.45;2266523;77;27702;-62
2021/04/10 01:28:52;;;;;;;107.83;52.85;;;;;;;2.94;55.46;100122.49;2205505;80;27564;-61
2021/04/10 01:31:56;;;;;;;93.95;46.15;;;;;;;2.91;55.46;100119.91;2217289;80;28814;-61
2021/04/10 01:35:12;;;;;;;103.87;49.48;;;;;;;2.88;55.56;100123.50;2215661;80;31398;-61
2021/04/10 01:38:17;;;;;;;97.78;48.30;;;;;;;2.85;55.80;100116.09;2176002;81;33069;-61
2021/04/10 01:41:22;;;;;;;105.07;52.13;;;;;;;2.81;55.90;100117.05;2186016;80;28771;-61
2021/04/10 01:44:24;;;;;;;109.85;52.70;;;;;;;2.79;55.91;100115.77;2139048;83;27711;-61
2021/04/10 01:47:27;;;;;;;120.08;58.33;;;;;;;2.78;56.18;100108.73;2204593;80;31162;-61
2021/04/10 01:50:30;;;;;;;135.03;62.70;;;;;;;2.76;56.28;100107.00;2217520;80;31134;-61
2021/04/10 01:53:33;;;;;;;147.17;64.30;;;;;;;2.73;56.56;100103.52;2217377;80;34075;-62
2021/04/10 01:56:43;;;;;;;120.55;56.65;;;;;;;2.69;56.79;100103.18;2215644;80;29802;-62
2021/04/10 01:59:47;;;;;;;126.70;59.20;;;;;;;2.69;56.64;100107.14;2217403;80;27754;-62
2021/04/10 02:02:49;;;;;;;127.22;59.33;;;;;;;2.67;56.68;100104.98;2196957;80;28816;-63
2021/04/10 02:05:52;;;;;;;117.60;55.88;;;;;;;2.67;56.60;100102.77;2139153;83;31160;-62
2021/04/10 02:08:55;;;;;;;127.78;57.33;;;;;;;2.63;56.68;100107.26;2212152;80;33273;-62
2021/04/10 02:11:58;;;;;;;113.60;54.53;;;;;;;2.60;56.83;100109.10;2174643;81;28924;-62
2021/04/10 02:15:03;;;;;;;121.60;56.08;;;;;;;2.55;56.85;100111.37;2217643;80;27576;-62
2021/04/10 02:18:05;;;;;;;127.35;60.23;;;;;;;2.50;57.04;100113.23;2174252;81;28925;-61
2021/04/10 02:21:09;;;;;;;124.30;59.45;;;;;;;2.46;57.22;100109.36;2217373;80;31349;-61
2021/04/10 02:24:13;;;;;;;116.42;55.17;;;;;;;2.42;57.20;100103.27;2179476;81;33106;-64
2021/04/10 02:27:16;;;;;;;114.90;55.25;;;;;;;2.39;57.42;100109.50;2177240;81;29292;-61
2021/04/10 02:30:19;;;;;;;120.87;58.08;;;;;;;2.35;57.39;100102.95;2173553;81;27834;-62
2021/04/10 02:33:26;;;;;;;123.75;56.90;;;;;;;2.31;57.30;100106.11;2171561;81;28816;-61
2021/04/10 02:36:29;;;;;;;125.55;58.48;;;;;;;2.26;57.43;100092.11;2182065;81;31094;-61
2021/04/10 02:39:32;;;;;;;109.95;55.08;;;;;;;2.21;57.82;100096.16;2176026;81;33104;-61
2021/04/10 02:42:38;;;;;;;94.15;45.83;;;;;;;2.18;58.13;100100.17;2260700;78;29069;-62
2021/04/10 02:45:41;;;;;;;98.03;49.35;;;;;;;2.19;58.31;100106.34;2184291;81;27748;-61
2021/04/10 02:49:02;;;;;;;86.50;44.42;;;;;;;2.18;58.17;100104.61;2193249;80;29004;-62
2021/04/10 02:52:06;;;;;;;91.12;46.73;;;;;;;2.17;58.48;100104.18;2152463;81;31204;-61
2021/04/10 02:55:10;;;;;;;99.15;47.27;;;;;;;2.14;58.24;100101.16;2212867;80;33111;-62
2021/04/10 02:58:13;;;;;;;98.15;47.33;;;;;;;2.11;58.78;100102.06;2138854;83;28936;-61
2021/04/10 03:01:16;;;;;;;97.12;48.40;;;;;;;2.05;58.84;100104.83;2197472;80;27898;-61
2021/04/10 03:04:19;;;;;;;111.03;50.95;;;;;;;2.02;58.63;100100.92;2216126;80;28818;-62
2021/04/10 03:07:21;;;;;;;101.10;48.13;;;;;;;2.01;59.13;100095.21;2216356;80;31136;-61
2021/04/10 03:10:24;;;;;;;113.15;48.45;;;;;;;1.99;59.20;100094.83;2215764;80;33105;-61
2021/04/10 03:13:26;;;;;;;95.75;46.18;;;;;;;1.96;59.21;100094.41;2176066;81;28864;-60
2021/04/10 03:16:30;;;;;;;99.22;46.83;;;;;;;1.94;58.99;100090.48;2216761;80;28098;-61
2021/04/10 03:19:34;;;;;;;91.97;46.13;;;;;;;1.94;59.09;100090.92;2175973;81;28836;-61
2021/04/10 03:22:36;;;;;;;94.83;44.90;;;;;;;1.95;59.14;100096.62;2204449;80;29920;-60
2021/04/10 03:25:40;;;;;;;89.40;45.85;;;;;;;1.94;59.37;100102.81;2216496;79;33136;-60
2021/04/10 03:28:43;;;;;;;104.10;47.88;;;;;;;1.93;59.32;100103.27;2180079;80;28943;-60
2021/04/10 03:31:46;;;;;;;97.70;46.55;;;;;;;1.89;59.35;100098.93;2175191;81;27746;-60
2021/04/10 03:34:48;;;;;;;121.53;51.68;;;;;;;1.86;59.38;100092.38;2205546;80;28986;-61
2021/04/10 03:37:51;;;;;;;122.07;52.75;;;;;;;1.84;59.47;100091.52;2110341;83;31219;-60
2021/04/10 03:40:53;;;;;;;213.07;101.25;;;;;;;1.83;59.60;100088.46;2177985;81;33615;-60
2021/04/10 03:43:55;;;;;;;103.70;48.73;;;;;;;1.80;59.96;100093.36;2138735;83;28923;-60
2021/04/10 03:46:57;;;;;;;104.35;45.58;;;;;;;1.78;59.70;100087.22;2178694;80;27576;-61
2021/04/10 03:49:59;;;;;;;95.90;44.13;;;;;;;1.77;59.82;100094.72;2138802;83;29268;-62
2021/04/10 03:53:02;;;;;;;115.12;56.20;;;;;;;1.77;59.68;100091.23;2207530;80;31139;-61
2021/04/10 03:56:05;;;;;;;107.67;48.02;;;;;;;1.75;59.82;100092.55;2164146;81;34066;-61
2021/04/10 03:59:07;;;;;;;104.12;51.68;;;;;;;1.74;59.91;100084.66;2180950;79;29183;-60
2021/04/10 04:02:10;;;;;;;99.50;47.38;;;;;;;1.70;60.02;100085.61;2253327;79;27636;-60
2021/04/10 04:05:13;;;;;;;99.45;48.48;;;;;;;1.68;59.96;100088.28;2212516;79;28894;-61
2021/04/10 04:08:15;;;;;;;99.42;44.27;;;;;;;1.65;60.36;100093.18;2188783;80;30339;-61
2021/04/10 04:11:17;;;;;;;91.95;44.38;;;;;;;1.62;60.34;100099.83;2138696;83;33073;-61
2021/04/10 04:14:21;;;;;;;99.97;44.27;;;;;;;1.62;60.28;100093.66;2178067;81;30018;-60
2021/04/10 04:17:23;;;;;;;85.35;41.40;;;;;;;1.63;60.20;100092.33;2158091;80;27652;-61
2021/04/10 04:20:25;;;;;;;93.12;44.38;;;;;;;1.64;60.40;100095.40;2216628;80;28927;-61
2021/04/10 04:23:27;;;;;;;84.90;39.20;;;;;;;1.64;60.60;100091.87;2209136;80;33478;-61
2021/04/10 04:26:29;;;;;;;89.70;40.55;;;;;;;1.64;60.64;100091.87;2167405;82;33147;-62
2021/04/10 04:29:32;;;;;;;79.10;42.50;;;;;;;1.68;60.54;100092.25;2167675;82;28870;-61
2021/04/10 04:32:34;;;;;;;97.92;49.18;;;;;;;1.72;60.71;100099.66;2165945;81;28364;-60
2021/04/10 04:35:36;;;;;;;91.00;42.75;;;;;;;1.76;60.91;100098.26;2176331;81;28835;-61
2021/04/10 04:38:39;;;;;;;80.05;41.75;;;;;;;1.82;61.02;100097.31;2178038;81;32450;-61
2021/04/10 04:41:41;;;;;;;94.85;49.88;;;;;;;1.89;61.06;100097.61;2181192;78;33124;-62
2021/04/10 04:44:44;;;;;;;85.12;42.67;;;;;;;1.97;61.11;100090.44;2175847;81;30262;-62
2021/04/10 04:47:46;;;;;;;87.82;45.60;;;;;;;2.04;60.98;100088.55;2216420;80;27649;-61
2021/04/10 04:50:48;;;;;;;83.30;41.98;;;;;;;2.17;61.07;100090.50;2175603;81;28746;-61
2021/04/10 04:53:50;;;;;;;95.92;41.25;;;;;;;2.35;61.11;100095.91;2181568;80;31430;-60
2021/04/10 04:56:52;;;;;;;77.00;39.00;;;;;;;2.55;61.07;100098.63;2204252;80;33119;-60
2021/04/10 04:59:54;;;;;;;80.40;40.98;;;;;;;2.74;61.05;100093.82;2175515;81;27739;-60
2021/04/10 05:02:56;;;;;;;85.77;42.13;;;;;;;2.93;61.00;100106.20;2164226;81;27673;-61
2021/04/10 05:05:58;;;;;;;85.38;38.02;;;;;;;3.15;60.97;100111.89;2216115;80;29795;-61
2021/04/10 05:09:00;;;;;;;68.67;37.50;;;;;;;3.37;60.87;100119.83;2214572;80;31152;-60
2021/04/10 05:12:05;;;;;;;78.35;38.75;;;;;;;3.59;60.70;100124.16;2230802;79;33486;-60
2021/04/10 05:15:08;;;;;;;70.70;35.97;;;;;;;3.84;60.59;100128.42;2229960;79;28795;-61
2021/04/10 05:18:10;;;;;;;74.85;36.48;;;;;;;4.12;60.28;100129.03;2216587;80;27839;-61
2021/04/10 05:21:12;;;;;;;73.15;33.95;;;;;;;4.39;60.01;100122.14;2216563;80;29792;-61
2021/04/10 05:24:14;;;;;;;64.75;33.95;;;;;;;4.67;59.80;100118.71;2189311;80;31144;-59
2021/04/10 05:27:16;;;;;;;58.00;33.88;;;;;;;4.97;59.61;100113.90;2159624;81;33113;-65
2021/04/10 05:30:19;;;;;;;64.87;34.55;;;;;;;5.23;59.10;100122.41;2222895;80;28851;-60
2021/04/10 05:33:21;;;;;;;67.75;33.88;;;;;;;5.48;58.91;100125.18;2182919;81;27632;-60
2021/04/10 05:36:23;;;;;;;60.60;32.65;;;;;;;5.70;58.59;100128.94;2223697;80;28818;-61
2021/04/10 05:39:25;;;;;;;54.00;29.50;;;;;;;5.92;58.51;100116.69;2177125;81;32121;-61
2021/04/10 05:42:28;;;;;;;49.93;26.27;;;;;;;6.19;58.59;100108.71;2223695;80;34531;-61
2021/04/10 05:45:31;;;;;;;46.98;22.48;;;;;;;6.49;58.44;100100.56;2223727;80;29741;-63
2021/04/10 05:48:33;;;;;;;41.50;21.45;;;;;;;6.83;58.02;100103.80;2184196;80;27829;-62
2021/04/10 05:51:35;;;;;;;35.60;19.23;;;;;;;7.14;57.14;100108.81;2179859;81;28824;-62
2021/04/10 05:54:37;;;;;;;35.60;19.00;;;;;;;7.45;56.60;100100.09;2168819;80;31794;-61
2021/04/10 05:57:39;;;;;;;34.90;17.92;;;;;;;7.69;55.91;100089.38;2188364;81;33064;-62
2021/04/10 06:00:41;;;;;;;31.50;17.10;;;;;;;7.96;56.28;100090.48;2170500;81;30240;-61
2021/04/10 06:03:43;;;;;;;32.93;17.35;;;;;;;8.24;55.56;100106.62;2182893;81;27846;-63
2021/04/10 06:06:46;;;;;;;32.88;17.35;;;;;;;8.59;55.19;100101.13;2184112;81;30041;-61
2021/04/10 06:09:49;;;;;;;35.75;18.35;;;;;;;9.01;54.82;100100.58;2184983;81;31150;-61
2021/04/10 06:12:51;;;;;;;30.15;16.55;;;;;;;9.41;54.59;100098.67;2176403;81;35465;-61
2021/04/10 06:15:53;;;;;;;33.33;15.43;;;;;;;9.82;54.32;100100.75;2199019;80;29473;-62
2021/04/10 06:18:55;;;;;;;34.30;16.45;;;;;;;10.28;53.08;100105.10;2145621;83;27736;-62
2021/04/10 06:21:57;;;;;;;28.57;15.50;;;;;;;10.61;51.96;100096.28;2184882;81;28824;-61
2021/04/10 06:24:59;;;;;;;24.30;14.05;;;;;;;11.06;51.05;100092.99;2147897;81;31155;-62
2021/04/10 06:28:05;;;;;;;22.50;13.50;;;;;;;11.52;50.63;100094.92;2187693;81;33648;-62
2021/04/10 06:31:07;;;;;;;27.00;13.98;;;;;;;12.04;50.00;100097.77;2209935;80;28540;-63
2021/04/10 06:34:10;;;;;;;27.20;14.35;;;;;;;12.54;49.34;100093.46;2215659;80;27725;-64
2021/04/10 06:37:12;;;;;;;23.18;13.18;;;;;;;12.80;48.40;100096.38;2192074;78;28879;-63
2021/04/10 06:40:14;;;;;;;26.12;13.55;;;;;;;13.09;46.92;100089.64;2178974;81;31139;-63
2021/04/10 06:43:17;;;;;;;26.97;14.15;;;;;;;13.49;47.25;100093.81;2212529;80;34062;-63
2021/04/10 06:46:19;;;;;;;26.35;13.98;;;;;;;13.82;46.60;100097.47;2221970;78;29168;-63
2021/04/10 06:49:21;;;;;;;28.32;13.22;;;;;;;13.94;45.96;100086.83;2186005;80;27718;-62
2021/04/10 06:52:24;;;;;;;23.92;14.43;;;;;;;14.04;45.89;100094.69;2186769;78;29792;-62
2021/04/10 06:55:27;;;;;;;20.77;13.45;;;;;;;14.48;45.41;100089.03;2214813;80;31134;-62
2021/04/10 06:58:56;;;;;;;20.92;12.88;;;;;;;15.03;45.20;100084.30;2256492;78;34065;-64
2021/04/10 07:01:58;;;;;;;24.25;14.28;;;;;;;15.69;45.20;100082.64;2191026;78;29152;-61
2021/04/10 07:05:00;;;;;;;24.75;13.85;;;;;;;16.19;43.47;100079.83;2217032;80;27779;-61
2021/04/10 07:08:07;;;;;;;19.55;12.47;;;;;;;16.06;43.03;100079.91;2217224;80;28881;-62
2021/04/10 07:11:10;;;;;;;16.25;11.22;;;;;;;15.92;43.47;100082.30;2145460;81;31132;-59
2021/04/10 07:14:13;;;;;;;22.82;12.88;;;;;;;15.73;42.42;100080.56;2154032;82;33130;-62
2021/04/10 07:17:16;;;;;;;24.23;12.53;;;;;;;15.60;42.87;100076.09;2194459;80;29159;-61
2021/04/10 07:20:27;;;;;;;18.07;12.13;;;;;;;15.53;42.84;100069.44;2193078;80;28184;-61
2021/04/10 07:23:29;;;;;;;20.45;13.58;;;;;;;15.49;42.64;100065.23;2205190;80;28819;-62
2021/04/10 07:26:57;;;;;;;22.60;13.15;;;;;;;15.30;42.14;100069.29;2202829;80;31134;-62
2021/04/10 07:30:00;;;;;;;23.85;13.93;;;;;;;15.13;42.29;100065.14;2191785;80;33039;-61
2021/04/10 07:33:03;;;;;;;18.15;12.33;;;;;;;15.00;42.31;100058.88;2197553;78;30135;-64
2021/04/10 07:36:09;;;;;;;20.45;12.23;;;;;;;14.88;42.14;100060.16;2193534;78;27870;-64
2021/04/10 07:39:15;;;;;;;17.75;9.45;;;;;;;14.81;42.10;100064.75;2196211;78;29351;-62
2021/04/10 07:42:23;;;;;;;15.83;8.63;;;;;;;14.78;42.12;100060.45;2200737;80;32045;-66
2021/04/10 07:45:34;;;;;;;14.47;8.58;;;;;;;14.89;41.72;100055.64;2185851;78;33147;-62
2021/04/10 07:48:38;;;;;;;12.82;7.60;;;;;;;15.14;41.72;100053.34;2189780;80;30008;-64
2021/04/10 07:51:59;;;;;;;10.48;7.22;;;;;;;15.72;41.20;100041.06;2200003;78;27939;-63
2021/04/10 07:55:01;;;;;;;14.90;7.87;;;;;;;16.28;40.63;100032.31;2206508;78;28862;-65
2021/04/10 07:58:25;;;;;;;11.57;7.67;;;;;;;16.76;40.78;100032.58;2193755;78;31133;-61
2021/04/10 08:01:27;;;;;;;8.73;6.90;;;;;;;17.10;40.28;100042.58;2184934;78;33318;-63
2021/04/10 08:04:29;;;;;;;14.70;7.62;;;;;;;17.70;40.09;100053.89;2191350;80;29149;-71
2021/04/10 08:07:33;;;;;;;13.55;7.08;;;;;;;18.35;38.95;100048.43;2199604;78;27608;-74
2021/04/10 08:10:36;;;;;;;12.33;7.87;;;;;;;18.72;37.14;100044.82;2177354;80;29702;-73
2021/04/10 08:13:38;;;;;;;11.00;6.87;;;;;;;18.87;37.23;100044.81;2193339;80;32034;-60
2021/04/10 08:16:49;;;;;;;11.70;6.42;;;;;;;19.36;36.52;100049.09;2192053;80;33118;-68
2021/04/10 08:19:52;;;;;;;12.28;6.62;;;;;;;19.81;36.56;100042.29;2200432;78;29173;-60
2021/04/10 08:23:19;;;;;;;13.40;7.33;;;;;;;19.98;36.05;100043.45;2206396;80;27644;-60
2021/04/10 08:26:21;;;;;;;12.95;6.35;;;;;;;20.12;34.08;100041.29;2193036;80;29786;-60
2021/04/10 08:29:26;;;;;;;9.15;6.30;;;;;;;20.32;34.50;100044.86;2199366;78;31144;-60
2021/04/10 08:32:28;;;;;;;8.35;6.70;;;;;;;20.65;34.02;100030.38;2190952;78;33111;-63
2021/04/10 08:35:31;;;;;;;8.93;7.05;;;;;;;20.70;32.66;100034.86;2202253;78;29144;-60
2021/04/10 08:38:34;;;;;;;10.18;7.58;;;;;;;20.66;33.07;100030.73;2183410;80;27803;-61
2021/04/10 08:41:38;;;;;;;11.55;7.62;;;;;;;20.71;32.68;100031.65;2190265;78;28731;-62
2021/04/10 08:44:46;;;;;;;11.18;7.50;;;;;;;20.72;32.64;100033.36;2195380;80;31084;-61
2021/04/10 08:47:48;;;;;;;13.05;7.60;;;;;;;20.74;33.48;100036.80;2189753;80;33039;-61
2021/04/10 08:50:55;;;;;;;13.50;7.65;;;;;;;20.87;33.58;100036.47;2196753;80;29330;-62
2021/04/10 08:53:58;;;;;;;7.83;5.62;;;;;;;20.88;33.07;100038.19;2199260;80;27719;-61
2021/04/10 08:57:07;;;;;;;10.55;5.53;;;;;;;20.93;32.30;100039.45;2196794;78;29351;-60
2021/04/10 09:00:27;;;;;;;11.57;6.05;;;;;;;20.97;32.15;100033.22;2192663;78;32103;-60
2021/04/10 09:03:54;;;;;;;11.78;5.55;;;;;;;20.97;31.10;100033.71;2196397;80;33106;-61
2021/04/10 09:06:56;;;;;;;11.68;6.35;;;;;;;20.95;31.06;100045.61;2205449;78;31415;-61
2021/04/10 09:09:58;;;;;;;8.93;5.42;;;;;;;20.98;32.00;100049.05;2193754;78;27779;-60
2021/04/10 09:13:18;;;;;;;14.65;5.90;;;;;;;20.95;31.31;100048.84;2189666;80;28813;-59
2021/04/10 09:16:31;;;;;;;15.58;5.92;;;;;;;20.82;31.00;100046.45;2201420;78;31126;-62
2021/04/10 09:19:36;;;;;;;14.13;6.78;;;;;;;20.57;31.24;100055.62;2191881;80;32298;-61
2021/04/10 09:22:40;;;;;;;11.08;6.62;;;;;;;20.31;30.82;100054.87;2184415;80;29308;-60
2021/04/10 09:25:42;;;;;;;13.38;8.10;;;;;;;20.12;31.03;100053.05;2205382;78;27753;-60
2021/04/10 09:29:15;;;;;;;6.72;5.35;;;;;;;20.00;31.12;100060.48;2194688;78;29866;-61
2021/04/10 09:32:36;;;;;;;7.72;5.67;;;;;;;19.79;30.83;100058.36;2183803;80;31646;-60
2021/04/10 09:35:38;;;;;;;8.03;5.65;;;;;;;19.41;30.98;100067.20;2191675;78;33096;-63
2021/04/10 09:38:46;;;;;;;11.20;6.97;;;;;;;19.22;31.44;100062.55;2196400;78;29158;-60
2021/04/10 09:41:50;;;;;;;10.23;6.17;;;;;;;19.11;31.52;100071.66;2200454;78;27725;-60
2021/04/10 09:45:12;;;;;;;11.93;6.33;;;;;;;18.95;31.25;100072.19;2194757;78;28805;-59
2021/04/10 09:48:18;;;;;;;16.40;6.58;;;;;;;18.80;31.71;100069.44;2195903;80;32088;-59
2021/04/10 09:51:20;;;;;;;19.73;8.03;;;;;;;18.68;31.43;100077.68;2186603;78;33341;-61
2021/04/10 09:54:23;;;;;;;13.68;7.25;;;;;;;18.46;31.63;100075.95;2207926;80;29176;-61
2021/04/10 09:57:25;;;;;;;12.82;6.90;;;;;;;18.24;31.40;100072.03;2198296;80;27641;-60
2021/04/10 10:00:41;;;;;;;12.53;6.40;;;;;;;18.04;31.70;100079.50;2194437;78;28833;-60
2021/04/10 10:03:46;;;;;;;13.60;7.03;;;;;;;17.84;31.63;100079.80;2195924;78;32029;-60
2021/04/10 10:06:49;;;;;;;17.15;7.65;;;;;;;17.64;31.87;100080.60;2184874;80;33209;-61
2021/04/10 10:10:07;;;;;;;13.75;7.85;;;;;;;17.48;32.20;100082.38;2186969;78;29152;-63
2021/04/10 10:13:16;;;;;;;15.53;8.73;;;;;;;17.48;32.20;100082.38;2192273;78;27677;-63
2021/04/10 10:16:29;;;;;;;16.67;7.85;;;;;;;17.43;32.11;100077.35;2191603;78;28806;-62
2021/04/10 10:19:31;;;;;;;13.20;8.60;;;;;;;17.31;32.40;100073.80;2195777;78;32004;-63
2021/04/10 10:22:33;;;;;;;26.97;21.93;;;;;;;17.30;32.65;100072.92;2195919;80;33178;-63
2021/04/10 10:25:35;;;;;;;15.32;9.95;;;;;;;17.28;32.83;100068.63;2191158;78;30030;-65
2021/04/10 10:28:43;;;;;;;15.10;7.53;;;;;;;17.29;32.86;100077.12;2176516;80;27735;-65
2021/04/10 10:31:49;;;;;;;11.38;7.65;;;;;;;17.27;32.83;100073.67;2159114;81;28820;-64
2021/04/10 10:34:51;;;;;;;12.75;6.75;;;;;;;17.25;32.83;100081.94;2202045;78;32075;-66
2021/04/10 10:37:54;;;;;;;17.05;8.68;;;;;;;17.21;32.80;100085.87;2208292;78;34039;-64
2021/04/10 10:40:56;;;;;;;13.38;8.00;;;;;;;17.11;33.02;100068.16;2176104;81;29247;-64
2021/04/10 10:44:02;;;;;;;9.55;5.85;;;;;;;17.12;33.12;100082.56;2194448;78;27744;-64
2021/04/10 10:47:07;;;;;;;11.10;6.00;;;;;;;17.07;32.86;100083.42;2166031;81;28909;-64
2021/04/10 10:50:10;;;;;;;;;;;;;;;16.97;32.69;100096.31;2207842;78;31130;-63
2021/04/10 10:53:19;;;;;;;8.93;5.87;;;;;;;16.88;32.79;100090.27;2163778;81;33281;-64
2021/04/10 10:56:26;;;;;;;14.75;5.92;;;;;;;16.83;33.10;100100.59;2192800;80;29231;-63
2021/04/10 10:59:31;;;;;;;12.85;6.22;;;;;;;16.80;32.95;100124.70;2163907;81;27786;-64
2021/04/10 11:02:34;;;;;;;11.70;5.72;;;;;;;16.80;32.95;100124.70;2185358;80;28904;-65
2021/04/10 11:05:37;;;;;;;9.18;5.35;;;;;;;16.77;33.18;100122.23;2156164;81;31143;-63
2021/04/10 11:08:39;;;;;;;9.93;5.12;;;;;;;16.81;33.36;100122.84;2202879;80;35468;-64
2021/04/10 11:11:45;;;;;;;13.68;6.53;;;;;;;16.78;33.11;100121.76;2162626;81;29181;-63
2021/04/10 11:14:50;;;;;;;11.88;7.40;;;;;;;16.88;33.81;100134.91;2209537;78;27796;-60
2021/04/10 11:17:52;;;;;;;18.70;7.70;;;;;;;16.88;33.81;100134.91;2146953;81;28840;-63
2021/04/10 11:21:19;;;;;;;12.07;6.40;;;;;;;16.94;33.67;100135.80;2200519;79;31360;-62
2021/04/10 11:24:23;;;;;;;15.70;7.22;;;;;;;17.03;33.50;100142.36;2170905;81;35467;-62
2021/04/10 11:27:26;;;;;;;11.55;6.70;;;;;;;17.18;33.82;100143.47;2199892;78;30221;-62
2021/04/10 11:30:29;;;;;;;11.00;6.20;;;;;;;17.24;33.56;100145.66;2167370;81;28197;-62
2021/04/10 11:33:35;;;;;;;12.70;7.10;;;;;;;17.35;33.94;100148.38;2163187;81;29246;-63
2021/04/10 11:36:54;;;;;;;12.88;7.42;;;;;;;17.50;33.79;100140.00;2192057;78;31120;-64
2021/04/10 11:40:00;;;;;;;12.40;7.12;;;;;;;17.59;33.99;100140.11;2207850;78;34482;-64
2021/04/10 11:43:06;;;;;;;12.43;8.25;;;;;;;17.72;34.12;100144.52;2161425;81;29285;-63
2021/04/10 11:46:14;;;;;;;10.53;7.00;;;;;;;17.82;33.89;100156.81;2197506;80;27755;-66
2021/04/10 11:49:26;;;;;;;19.42;12.80;;;;;;;17.90;33.83;100159.25;2161209;81;28823;-64
2021/04/10 11:52:28;;;;;;;35.05;21.93;;;;;;;18.04;33.96;100152.69;2198446;80;31144;-64
2021/04/10 11:55:31;;;;;;;17.98;13.22;;;;;;;18.18;33.92;100157.48;2161280;81;33139;-62
2021/04/10 11:58:36;;;;;;;16.00;10.10;;;;;;;18.26;33.71;100156.32;2197232;80;29174;-62
2021/04/10 12:01:52;;;;;;;15.90;10.35;;;;;;;18.30;33.51;100158.27;2168249;81;27842;-65
2021/04/10 12:08:25;;;;;;;16.00;10.58;;;;;;;18.41;33.81;100158.72;2318153;76;29446;-60
2021/04/10 12:11:27;;;;;;;22.82;12.90;;;;;;;18.35;32.95;100164.17;2286989;75;27643;-64
2021/04/10 12:14:30;;;;;;;14.93;9.93;;;;;;;18.28;33.46;100169.26;2206791;79;28891;-63
2021/04/10 12:17:32;;;;;;;42.50;25.62;;;;;;;18.26;33.22;100175.30;2227701;77;32026;-63
2021/04/10 12:20:38;;;;;;;30.37;15.08;;;;;;;18.28;32.89;100171.12;2195821;78;33926;-60
2021/04/10 12:23:57;;;;;;;25.77;14.13;;;;;;;18.29;33.05;100175.53;2312273;75;32421;-63
2021/04/10 12:26:59;;;;;;;22.93;15.55;;;;;;;18.38;33.18;100178.84;2277626;76;28048;-62
2021/04/10 12:30:04;;;;;;;22.52;13.48;;;;;;;18.44;33.15;100176.09;2294069;76;29766;-62
2021/04/10 12:33:06;;;;;;;20.88;12.73;;;;;;;18.35;32.70;100186.75;2286586;76;31139;-64
2021/04/10 12:36:09;;;;;;;20.32;11.97;;;;;;;18.22;32.89;100179.25;2292737;76;33158;-62
2021/04/10 12:39:13;;;;;;;24.82;15.18;;;;;;;18.06;33.10;100179.18;2290172;76;29474;-64
2021/04/10 12:42:16;;;;;;;22.05;14.55;;;;;;;17.91;33.55;100191.27;2249062;77;27786;-61
2021/04/10 12:45:19;;;;;;;22.05;13.45;;;;;;;17.81;33.74;100190.31;2283493;76;28813;-63
2021/04/10 12:48:22;;;;;;;26.62;19.70;;;;;;;17.69;33.64;100186.28;2305199;76;31120;-64
2021/04/10 12:51:24;;;;;;;25.88;16.07;;;;;;;17.31;34.22;100176.18;2305081;77;33047;-62
2021/04/10 12:54:26;;;;;;;31.93;18.40;;;;;;;17.31;34.22;100176.18;2306491;77;28839;-62
2021/04/10 12:57:29;;;;;;;44.80;23.35;;;;;;;17.25;34.00;100192.94;2274643;77;27728;-62
2021/04/10 13:00:31;;;;;;;41.77;21.20;;;;;;;16.97;34.19;100180.72;2255672;77;30178;-63
2021/04/10 13:03:33;;;;;;;28.52;17.15;;;;;;;16.93;34.53;100199.02;2253215;79;31131;-62
2021/04/10 13:06:36;;;;;;;25.17;15.65;;;;;;;16.79;34.68;100196.02;2252743;77;33135;-62
2021/04/10 13:09:43;;;;;;;26.73;15.32;;;;;;;16.67;34.81;100198.33;2296820;76;29312;-63
2021/04/10 13:12:43;;;;;;;26.85;15.68;;;;;;;16.53;34.89;100203.44;2305479;77;27717;-62
2021/04/10 13:15:45;;;;;;;23.12;14.93;;;;;;;16.34;34.83;100206.69;2304590;77;29772;-62
2021/04/10 13:18:47;;;;;;;24.92;14.33;;;;;;;16.19;35.04;100205.98;2306012;77;32121;-63
2021/04/10 13:21:50;;;;;;;17.87;11.48;;;;;;;16.08;34.97;100208.13;2302943;77;33125;-61
2021/04/10 13:24:54;;;;;;;21.50;12.55;;;;;;;15.90;34.88;100211.72;2289925;77;28948;-60
2021/04/10 13:27:56;;;;;;;34.27;18.00;;;;;;;15.78;34.86;100218.84;2286377;77;27746;-64
2021/04/10 13:31:00;;;;;;;29.82;14.60;;;;;;;15.72;35.17;100222.02;2248617;78;28824;-63
2021/04/10 13:34:02;;;;;;;24.02;14.85;;;;;;;15.68;35.21;100217.30;2248152;79;31260;-63
2021/04/10 13:37:04;;;;;;;25.52;13.83;;;;;;;15.62;35.34;100219.97;2287809;77;33146;-63
2021/04/10 13:40:08;;;;;;;23.18;13.08;;;;;;;15.59;35.43;100227.43;2289106;77;28854;-62
2021/04/10 13:43:10;;;;;;;23.92;13.43;;;;;;;15.54;35.57;100223.72;2289030;77;28005;-63
2021/04/10 13:46:16;;;;;;;23.98;14.35;;;;;;;15.55;35.99;100226.80;2265548;77;28815;-62
2021/04/10 13:52:45;;;;;;;22.35;13.88;;;;;;;15.58;35.98;100227.05;2342554;76;32297;-72
2021/04/10 13:55:47;;;;;;;27.45;18.10;;;;;;;15.50;36.20;100232.50;2304828;77;27720;-63
2021/04/10 13:58:50;;;;;;;24.67;15.65;;;;;;;15.54;36.49;100230.94;2306249;77;28798;-62
2021/04/10 14:01:52;;;;;;;28.52;17.98;;;;;;;15.52;36.60;100231.06;2264523;77;33466;-62
2021/04/10 14:05:11;;;;;;;35.03;18.85;;;;;;;15.45;36.80;100229.77;2260599;77;33126;-63
2021/04/10 14:08:19;;;;;;;31.60;17.80;;;;;;;15.39;36.93;100240.52;2264805;78;28538;-61
2021/04/10 14:11:19;;;;;;;30.57;17.12;;;;;;;15.33;37.24;100239.12;2264265;78;35433;-59
2021/04/10 14:14:22;;;;;;;44.25;19.02;;;;;;;15.26;37.34;100240.51;2264855;78;28991;-62